Time;durP1;ratioP1;P1;durP2;ratioP2;P2;SDS_P1;SDS_P2;PMS_P1;PMS_P2;Temp;Humidity;BMP_temperature;BMP_pressure;BME280_temperature;BME280_humidity;BME280_pressure;Samples;Min_cycle;Max_cycle;Signal;HPM_P1;HPM_P2
2022/05/17 00:01:10;;;;;;;;;;;27.90;40.90;;;;;;5096400;28;1910;-43
2022/05/17 00:03:37;;;;;;;;;;;27.90;41.00;;;;;;5097058;28;912;-43
2022/05/17 00:06:06;;;;;;;;;;;27.90;41.10;;;;;;5096535;28;1032;-44
2022/05/17 00:08:32;;;;;;;;;;;27.90;41.00;;;;;;5094969;28;1005;-43
2022/05/17 00:10:59;;;;;;;;;;;27.90;41.00;;;;;;5096715;28;986;-43
2022/05/17 00:13:26;;;;;;;;;;;27.90;40.90;;;;;;5096274;28;1024;-44
2022/05/17 00:15:53;;;;;;;;;;;27.90;40.80;;;;;;5096196;28;932;-44
2022/05/17 00:18:21;;;;;;;;;;;27.90;40.90;;;;;;5096499;28;1000;-42
2022/05/17 00:20:48;;;;;;;;;;;27.90;41.00;;;;;;5096031;28;1981;-43
2022/05/17 00:23:16;;;;;;;;;;;27.90;40.80;;;;;;5096417;28;881;-44
2022/05/17 00:25:43;;;;;;;;;;;27.90;41.00;;;;;;5096596;28;1004;-44
2022/05/17 00:28:10;;;;;;;;;;;27.90;41.00;;;;;;5096819;28;1202;-44
2022/05/17 00:30:37;;;;;;;;;;;27.90;41.10;;;;;;5096448;28;1020;-38
2022/05/17 00:33:04;;;;;;;;;;;27.90;41.00;;;;;;5096810;28;976;-39
2022/05/17 00:35:31;;;;;;;;;;;27.90;40.90;;;;;;5096056;28;952;-40
2022/05/17 00:37:58;;;;;;;;;;;27.90;41.00;;;;;;5096782;28;948;-38
2022/05/17 00:40:26;;;;;;;;;;;27.90;40.90;;;;;;5096746;28;1972;-39
2022/05/17 00:42:53;;;;;;;;;;;27.90;40.90;;;;;;5096526;28;969;-40
2022/05/17 00:45:19;;;;;;;;;;;27.90;41.00;;;;;;5097150;28;937;-38
2022/05/17 00:47:49;;;;;;;;;;;27.90;41.00;;;;;;5096708;28;941;-38
2022/05/17 00:50:20;;;;;;;;;;;27.90;41.00;;;;;;5100378;28;904;-42
2022/05/17 00:52:48;;;;;;;;;;;27.90;41.10;;;;;;5099990;28;976;-40
2022/05/17 00:55:17;;;;;;;;;;;27.90;41.00;;;;;;5101017;28;1042;-38
2022/05/17 00:57:48;;;;;;;;;;;27.90;40.90;;;;;;5100213;28;1098;-38
2022/05/17 01:00:19;;;;;;;;;;;27.90;41.00;;;;;;5100019;28;966;-38
2022/05/17 01:02:47;;;;;;;;;;;27.90;40.90;;;;;;5100395;28;1134;-38
2022/05/17 01:05:14;;;;;;;;;;;27.90;41.00;;;;;;5100013;28;868;-39
2022/05/17 01:07:42;;;;;;;;;;;27.90;40.80;;;;;;5098379;28;1760;-38
2022/05/17 01:10:10;;;;;;;;;;;27.90;40.90;;;;;;5099741;28;1005;-38
2022/05/17 01:12:37;;;;;;;;;;;27.90;40.90;;;;;;5100181;28;917;-38
2022/05/17 01:15:06;;;;;;;;;;;27.90;40.80;;;;;;5099786;28;998;-41
2022/05/17 01:17:35;;;;;;;;;;;27.80;40.80;;;;;;5100326;28;918;-38
2022/05/17 01:20:04;;;;;;;;;;;27.90;40.90;;;;;;5099619;28;892;-39
2022/05/17 01:22:32;;;;;;;;;;;27.90;40.80;;;;;;5099987;28;1902;-38
2022/05/17 01:24:59;;;;;;;;;;;27.90;40.80;;;;;;5100521;28;1024;-38
2022/05/17 01:27:29;;;;;;;;;;;27.90;41.00;;;;;;5099359;28;1008;-38
2022/05/17 01:29:56;;;;;;;;;;;27.90;40.90;;;;;;5099605;28;929;-38
2022/05/17 01:32:23;;;;;;;;;;;27.80;40.80;;;;;;5099762;28;1004;-38
2022/05/17 01:34:50;;;;;;;;;;;27.80;40.90;;;;;;5099676;28;1039;-40
2022/05/17 01:37:17;;;;;;;;;;;27.90;40.80;;;;;;5099437;28;1000;-38
2022/05/17 01:39:45;;;;;;;;;;;27.80;40.90;;;;;;5100307;28;999;-39
2022/05/17 01:42:12;;;;;;;;;;;27.80;40.90;;;;;;5099419;28;1906;-38
2022/05/17 01:44:40;;;;;;;;;;;27.80;40.90;;;;;;5099951;28;999;-38
2022/05/17 01:47:07;;;;;;;;;;;27.80;40.90;;;;;;5099221;28;1130;-38
2022/05/17 01:49:34;;;;;;;;;;;27.80;40.90;;;;;;5099306;28;865;-39
2022/05/17 01:52:01;;;;;;;;;;;27.80;40.80;;;;;;5099280;28;1020;-39
2022/05/17 01:54:28;;;;;;;;;;;27.90;40.90;;;;;;5098805;28;936;-40
2022/05/17 01:56:56;;;;;;;;;;;27.80;40.90;;;;;;5099421;28;1020;-40
2022/05/17 01:59:22;;;;;;;;;;;27.80;40.70;;;;;;5098384;28;1101;-43
2022/05/17 02:01:49;;;;;;;;;;;27.80;40.80;;;;;;5101047;28;1902;-38
2022/05/17 02:04:16;;;;;;;;;;;27.80;40.80;;;;;;5098635;28;980;-41
2022/05/17 02:06:43;;;;;;;;;;;27.80;40.80;;;;;;5099372;28;1004;-39
2022/05/17 02:09:10;;;;;;;;;;;27.80;40.70;;;;;;5098702;28;1024;-38
2022/05/17 02:11:36;;;;;;;;;;;27.80;40.80;;;;;;5098935;28;994;-38
2022/05/17 02:14:05;;;;;;;;;;;27.80;40.70;;;;;;5098668;28;1012;-41
2022/05/17 02:16:34;;;;;;;;;;;27.80;40.60;;;;;;5098830;28;1076;-38
2022/05/17 02:19:01;;;;;;;;;;;27.80;40.90;;;;;;5098514;28;1019;-39
2022/05/17 02:21:28;;;;;;;;;;;27.80;40.80;;;;;;5098605;28;1882;-39
2022/05/17 02:23:54;;;;;;;;;;;27.80;40.80;;;;;;5098296;28;932;-38
2022/05/17 02:26:21;;;;;;;;;;;27.80;40.90;;;;;;5098660;28;1859;-38
2022/05/17 02:28:48;;;;;;;;;;;27.80;40.90;;;;;;5098027;28;947;-39
2022/05/17 02:31:17;;;;;;;;;;;27.80;40.80;;;;;;5097828;28;1045;-38
2022/05/17 02:33:44;;;;;;;;;;;27.80;40.90;;;;;;5098856;28;981;-38
2022/05/17 02:36:11;;;;;;;;;;;27.80;40.90;;;;;;5098463;28;972;-38
2022/05/17 02:38:37;;;;;;;;;;;27.70;40.80;;;;;;5097552;28;1024;-39
2022/05/17 02:44:17;;;;;;;;;;;27.80;40.90;;;;;;5097562;28;608;-39
2022/05/17 02:46:45;;;;;;;;;;;27.70;40.80;;;;;;5097531;28;913;-42
2022/05/17 02:49:12;;;;;;;;;;;27.70;40.70;;;;;;5098139;28;992;-38
2022/05/17 02:51:39;;;;;;;;;;;27.70;40.80;;;;;;5098722;28;999;-38
2022/05/17 02:54:07;;;;;;;;;;;27.70;40.80;;;;;;5097375;28;1005;-38
2022/05/17 02:56:34;;;;;;;;;;;27.70;40.90;;;;;;5097607;28;1024;-42
2022/05/17 02:59:01;;;;;;;;;;;27.70;40.90;;;;;;5097587;28;1167;-43
2022/05/17 03:01:28;;;;;;;;;;;27.70;40.80;;;;;;5098544;28;1898;-41
2022/05/17 03:03:56;;;;;;;;;;;27.70;40.80;;;;;;5098114;28;933;-42
2022/05/17 03:06:23;;;;;;;;;;;27.70;40.60;;;;;;5098013;28;992;-41
2022/05/17 03:08:49;;;;;;;;;;;27.70;40.80;;;;;;5097474;28;992;-40
2022/05/17 03:11:16;;;;;;;;;;;27.70;40.90;;;;;;5097964;28;1016;-42
2022/05/17 03:13:43;;;;;;;;;;;27.70;40.80;;;;;;5098090;28;1009;-39
2022/05/17 03:16:10;;;;;;;;;;;27.70;40.70;;;;;;5097986;28;998;-42
2022/05/17 03:18:38;;;;;;;;;;;27.70;40.90;;;;;;5097663;28;838;-42
2022/05/17 03:21:06;;;;;;;;;;;27.70;40.70;;;;;;5097386;28;1983;-41
2022/05/17 03:23:33;;;;;;;;;;;27.70;40.80;;;;;;5097075;28;1004;-43
2022/05/17 03:26:00;;;;;;;;;;;27.70;40.80;;;;;;5097040;28;997;-39
2022/05/17 03:28:27;;;;;;;;;;;27.70;40.80;;;;;;5097402;28;1047;-43
2022/05/17 03:30:54;;;;;;;;;;;27.70;40.80;;;;;;5097268;28;1865;-38
2022/05/17 03:33:20;;;;;;;;;;;27.70;40.80;;;;;;5096294;28;949;-39
2022/05/17 03:35:47;;;;;;;;;;;27.70;40.80;;;;;;5096442;28;1024;-44
2022/05/17 03:38:15;;;;;;;;;;;27.70;40.90;;;;;;5096876;28;972;-43
2022/05/17 03:40:42;;;;;;;;;;;27.70;40.70;;;;;;5097090;28;976;-44
2022/05/17 03:43:08;;;;;;;;;;;27.70;40.80;;;;;;5097178;28;1906;-43
2022/05/17 03:45:36;;;;;;;;;;;27.70;40.80;;;;;;5096888;28;980;-44
2022/05/17 03:48:03;;;;;;;;;;;27.70;40.80;;;;;;5096563;28;956;-44
2022/05/17 03:50:29;;;;;;;;;;;27.70;40.70;;;;;;5096204;28;1060;-44
2022/05/17 03:52:56;;;;;;;;;;;27.70;40.80;;;;;;5097010;28;908;-45
2022/05/17 03:55:24;;;;;;;;;;;27.70;40.80;;;;;;5096634;28;949;-44
2022/05/17 03:57:51;;;;;;;;;;;27.70;40.80;;;;;;5097017;28;1291;-44
2022/05/17 04:00:18;;;;;;;;;;;27.70;40.70;;;;;;5096543;28;1028;-43
2022/05/17 04:02:45;;;;;;;;;;;27.70;40.80;;;;;;5097001;28;1910;-44
2022/05/17 04:05:12;;;;;;;;;;;27.70;40.80;;;;;;5097018;28;1361;-45
2022/05/17 04:07:39;;;;;;;;;;;27.70;40.90;;;;;;5097265;28;957;-43
2022/05/17 04:10:07;;;;;;;;;;;27.70;40.90;;;;;;5096363;28;1025;-43
2022/05/17 04:12:35;;;;;;;;;;;27.60;40.70;;;;;;5097201;28;1003;-44
2022/05/17 04:15:02;;;;;;;;;;;27.70;40.80;;;;;;5097120;28;1015;-44
2022/05/17 04:17:29;;;;;;;;;;;27.60;40.70;;;;;;5095997;28;880;-43
2022/05/17 04:19:55;;;;;;;;;;;27.70;40.80;;;;;;5095260;28;985;-44
2022/05/17 04:22:22;;;;;;;;;;;27.70;40.80;;;;;;5096205;28;1992;-43
2022/05/17 04:24:49;;;;;;;;;;;27.70;40.80;;;;;;5099585;28;994;-44
2022/05/17 04:27:15;;;;;;;;;;;27.70;40.80;;;;;;5099885;28;921;-44
2022/05/17 04:29:43;;;;;;;;;;;27.70;40.90;;;;;;5098783;28;849;-44
2022/05/17 04:32:10;;;;;;;;;;;27.70;40.80;;;;;;5098374;28;1112;-42
2022/05/17 04:34:37;;;;;;;;;;;27.70;40.80;;;;;;5098518;28;992;-44
2022/05/17 04:37:04;;;;;;;;;;;27.60;40.70;;;;;;5097850;28;1007;-44
2022/05/17 04:39:31;;;;;;;;;;;27.70;40.70;;;;;;5098151;28;976;-44
2022/05/17 04:41:58;;;;;;;;;;;27.70;40.80;;;;;;5097870;28;2004;-44
2022/05/17 04:44:26;;;;;;;;;;;27.70;40.80;;;;;;5098071;28;979;-44
2022/05/17 04:46:54;;;;;;;;;;;27.70;40.80;;;;;;5097885;28;998;-43
2022/05/17 04:49:21;;;;;;;;;;;27.70;40.60;;;;;;5096702;28;1005;-43
2022/05/17 04:51:50;;;;;;;;;;;27.70;40.70;;;;;;5097899;28;997;-43
2022/05/17 04:54:18;;;;;;;;;;;27.70;40.70;;;;;;5097216;28;992;-43
2022/05/17 04:56:44;;;;;;;;;;;27.70;40.90;;;;;;5098185;28;953;-43
2022/05/17 04:59:11;;;;;;;;;;;27.70;40.70;;;;;;5097513;28;1198;-44
2022/05/17 05:01:38;;;;;;;;;;;27.60;40.80;;;;;;5096923;28;1983;-43
2022/05/17 05:04:07;;;;;;;;;;;27.70;40.90;;;;;;5096031;28;1031;-44
2022/05/17 05:06:33;;;;;;;;;;;27.60;40.90;;;;;;5096525;28;937;-44
2022/05/17 05:09:00;;;;;;;;;;;27.60;40.90;;;;;;5096028;28;975;-43
2022/05/17 05:11:27;;;;;;;;;;;27.60;40.90;;;;;;5096695;28;996;-44
2022/05/17 05:13:53;;;;;;;;;;;27.60;40.80;;;;;;5096829;28;976;-38
2022/05/17 05:16:20;;;;;;;;;;;27.70;40.90;;;;;;5096105;28;1012;-39
2022/05/17 05:18:47;;;;;;;;;;;27.70;40.90;;;;;;5095250;28;937;-42
2022/05/17 05:21:16;;;;;;;;;;;27.70;40.90;;;;;;5096974;28;942;-40
2022/05/17 05:23:43;;;;;;;;;;;27.60;40.70;;;;;;5096150;28;1964;-38
2022/05/17 05:26:11;;;;;;;;;;;27.70;40.80;;;;;;5095076;28;940;-39
2022/05/17 05:28:38;;;;;;;;;;;27.70;40.80;;;;;;5094351;28;1016;-38
2022/05/17 05:31:05;;;;;;;;;;;27.70;40.80;;;;;;5095172;28;924;-39
2022/05/17 05:33:33;;;;;;;;;;;27.70;40.80;;;;;;5094322;28;944;-38
2022/05/17 05:36:01;;;;;;;;;;;27.60;40.70;;;;;;5094944;28;1005;-38
2022/05/17 05:38:29;;;;;;;;;;;27.60;40.70;;;;;;5095367;28;968;-39
2022/05/17 05:40:56;;;;;;;;;;;27.70;40.80;;;;;;5095700;28;937;-39
2022/05/17 05:43:23;;;;;;;;;;;27.60;40.70;;;;;;5094298;28;1984;-43
2022/05/17 05:45:49;;;;;;;;;;;27.60;40.70;;;;;;5095385;28;885;-44
2022/05/17 05:48:16;;;;;;;;;;;27.70;40.90;;;;;;5101297;28;1735;-42
2022/05/17 05:50:43;;;;;;;;;;;27.60;40.70;;;;;;5115409;28;990;-42
2022/05/17 05:53:10;;;;;;;;;;;27.70;40.90;;;;;;5114555;28;1008;-44
2022/05/17 05:55:40;;;;;;;;;;;27.70;40.70;;;;;;5114680;28;884;-43
2022/05/17 05:58:07;;;;;;;;;;;27.60;40.80;;;;;;5115140;28;1253;-44
2022/05/17 06:00:35;;;;;;;;;;;27.60;40.80;;;;;;5114485;28;913;-43
2022/05/17 06:03:03;;;;;;;;;;;27.70;40.80;;;;;;5113838;28;1917;-43
2022/05/17 06:05:30;;;;;;;;;;;27.70;40.90;;;;;;5114793;28;892;-44
2022/05/17 06:07:56;;;;;;;;;;;27.70;40.90;;;;;;5114694;28;970;-44
2022/05/17 06:10:23;;;;;;;;;;;27.70;40.80;;;;;;5113910;28;898;-44
2022/05/17 06:12:52;;;;;;;;;;;27.70;40.90;;;;;;5115669;28;1031;-44
2022/05/17 06:15:19;;;;;;;;;;;27.70;40.80;;;;;;5114229;28;912;-44
2022/05/17 06:17:46;;;;;;;;;;;27.70;40.70;;;;;;5114817;28;1012;-44
2022/05/17 06:20:14;;;;;;;;;;;27.70;40.70;;;;;;5115444;28;1070;-44
2022/05/17 06:22:41;;;;;;;;;;;27.70;40.80;;;;;;5113840;28;1894;-43
2022/05/17 06:25:09;;;;;;;;;;;27.70;40.80;;;;;;5113926;28;969;-41
2022/05/17 06:27:35;;;;;;;;;;;27.80;40.50;;;;;;5113408;28;1065;-41
2022/05/17 06:30:04;;;;;;;;;;;27.70;40.50;;;;;;5113969;28;971;-40
2022/05/17 06:32:30;;;;;;;;;;;27.70;40.70;;;;;;5113407;28;877;-39
2022/05/17 06:34:57;;;;;;;;;;;27.70;40.80;;;;;;5113181;28;957;-39
2022/05/17 06:37:24;;;;;;;;;;;27.80;40.60;;;;;;5114577;28;946;-44
2022/05/17 06:39:50;;;;;;;;;;;27.80;41.10;;;;;;5114035;28;973;-44
2022/05/17 06:42:17;;;;;;;;;;;27.80;40.90;;;;;;5113759;28;1901;-44
2022/05/17 06:44:44;;;;;;;;;;;27.70;41.10;;;;;;5114740;28;988;-44
2022/05/17 06:47:12;;;;;;;;;;;27.70;41.10;;;;;;5113472;28;1102;-44
2022/05/17 06:49:39;;;;;;;;;;;27.80;41.10;;;;;;5114282;28;864;-44
2022/05/17 06:52:08;;;;;;;;;;;27.70;42.20;;;;;;5114987;28;1119;-43
2022/05/17 06:54:34;;;;;;;;;;;27.70;41.00;;;;;;5114184;28;1028;-43
2022/05/17 06:57:04;;;;;;;;;;;27.70;41.10;;;;;;5114873;28;941;-43
2022/05/17 06:59:31;;;;;;;;;;;27.70;41.10;;;;;;5100312;28;1674;-43
2022/05/17 07:01:59;;;;;;;;;;;27.70;41.00;;;;;;5093601;28;937;-44
2022/05/17 07:04:28;;;;;;;;;;;27.70;41.10;;;;;;5092615;28;1905;-44
2022/05/17 07:06:55;;;;;;;;;;;27.80;41.00;;;;;;5094213;28;976;-44
2022/05/17 07:09:22;;;;;;;;;;;27.80;41.10;;;;;;5093861;28;1011;-44
2022/05/17 07:14:33;;;;;;;;;;;27.70;40.90;;;;;;5093933;28;711;-43
2022/05/17 07:16:59;;;;;;;;;;;27.70;41.00;;;;;;5093258;28;1169;-44
2022/05/17 07:19:27;;;;;;;;;;;27.80;41.10;;;;;;5091245;28;992;-43
2022/05/17 07:21:54;;;;;;;;;;;27.80;41.00;;;;;;5091707;28;937;-44
2022/05/17 07:24:21;;;;;;;;;;;27.80;41.00;;;;;;5091266;28;1973;-44
2022/05/17 07:26:48;;;;;;;;;;;27.80;41.00;;;;;;5091553;28;992;-44
2022/05/17 07:29:14;;;;;;;;;;;27.80;40.90;;;;;;5091547;28;997;-44
2022/05/17 07:31:41;;;;;;;;;;;27.80;40.80;;;;;;5091954;28;985;-40
2022/05/17 07:34:08;;;;;;;;;;;27.80;40.80;;;;;;5092595;28;925;-43
2022/05/17 07:36:36;;;;;;;;;;;27.80;40.80;;;;;;5092564;28;1004;-43
2022/05/17 07:39:03;;;;;;;;;;;27.80;40.70;;;;;;5093084;28;853;-44
2022/05/17 07:41:30;;;;;;;;;;;27.80;40.70;;;;;;5093720;28;1005;-44
2022/05/17 07:43:57;;;;;;;;;;;27.80;40.70;;;;;;5092364;28;1913;-44
2022/05/17 07:46:24;;;;;;;;;;;27.80;40.70;;;;;;5092515;28;1530;-42
2022/05/17 07:48:50;;;;;;;;;;;27.80;40.70;;;;;;5092563;28;985;-43
2022/05/17 07:51:17;;;;;;;;;;;27.80;40.70;;;;;;5093248;28;978;-41
2022/05/17 07:53:46;;;;;;;;;;;27.80;40.90;;;;;;5093482;28;906;-44
2022/05/17 07:56:13;;;;;;;;;;;27.80;41.00;;;;;;5093893;28;894;-44
2022/05/17 07:58:39;;;;;;;;;;;27.80;40.90;;;;;;5090872;28;1432;-44
2022/05/17 08:01:06;;;;;;;;;;;27.80;40.90;;;;;;5093253;28;1007;-44
2022/05/17 08:03:33;;;;;;;;;;;27.80;40.70;;;;;;5092755;28;1976;-44
2022/05/17 08:05:59;;;;;;;;;;;27.80;40.60;;;;;;5093740;28;980;-44
2022/05/17 08:08:27;;;;;;;;;;;27.80;40.60;;;;;;5093988;28;900;-43
2022/05/17 08:10:55;;;;;;;;;;;27.80;40.40;;;;;;5094770;28;1013;-43
2022/05/17 08:13:22;;;;;;;;;;;27.90;40.40;;;;;;5095212;28;968;-44
2022/05/17 08:15:50;;;;;;;;;;;27.90;40.50;;;;;;5093400;28;977;-43
2022/05/17 08:18:17;;;;;;;;;;;27.90;40.40;;;;;;5091737;28;936;-43
2022/05/17 08:20:43;;;;;;;;;;;27.90;40.40;;;;;;5093896;28;1040;-44
2022/05/17 08:23:11;;;;;;;;;;;27.90;40.30;;;;;;5092535;28;1898;-43
2022/05/17 08:28:23;;;;;;;;;;;27.90;40.40;;;;;;5092919;28;694;-44
2022/05/17 08:30:49;;;;;;;;;;;27.90;40.40;;;;;;5092553;28;1382;-44
2022/05/17 08:33:17;;;;;;;;;;;27.90;40.30;;;;;;5092345;28;952;-44
2022/05/17 08:35:49;;;;;;;;;;;27.90;40.40;;;;;;5092788;28;914;-44
2022/05/17 08:38:18;;;;;;;;;;;27.90;40.30;;;;;;5092321;28;1836;-44
2022/05/17 08:40:51;;;;;;;;;;;27.90;40.30;;;;;;5092238;28;1012;-43
2022/05/17 08:43:23;;;;;;;;;;;27.90;40.40;;;;;;5093164;28;1905;-44
2022/05/17 08:46:05;;;;;;;;;;;27.90;40.40;;;;;;5093123;28;1009;-43
2022/05/17 08:48:34;;;;;;;;;;;27.90;40.40;;;;;;5093297;28;1048;-44
2022/05/17 08:51:02;;;;;;;;;;;27.90;40.30;;;;;;5091386;28;999;-44
2022/05/17 08:53:28;;;;;;;;;;;27.90;40.40;;;;;;5091770;28;1040;-43
2022/05/17 08:55:55;;;;;;;;;;;27.90;40.40;;;;;;5092166;28;903;-44
2022/05/17 08:58:24;;;;;;;;;;;27.90;40.30;;;;;;5091833;28;1035;-43
2022/05/17 09:00:52;;;;;;;;;;;27.90;40.30;;;;;;5094372;28;961;-44
2022/05/17 09:03:32;;;;;;;;;;;28.00;40.50;;;;;;5093444;28;1902;-43
2022/05/17 09:06:03;;;;;;;;;;;28.00;40.50;;;;;;5093754;28;1000;-43
2022/05/17 09:08:34;;;;;;;;;;;28.00;40.40;;;;;;5091281;28;933;-44
2022/05/17 09:11:07;;;;;;;;;;;28.00;40.50;;;;;;5096826;28;974;-44
2022/05/17 09:13:43;;;;;;;;;;;28.00;40.40;;;;;;5095083;28;980;-44
2022/05/17 09:16:10;;;;;;;;;;;28.00;40.50;;;;;;5096586;28;993;-44
2022/05/17 09:18:39;;;;;;;;;;;28.00;40.40;;;;;;5094755;28;757;-44
2022/05/17 09:21:06;;;;;;;;;;;28.00;40.50;;;;;;5095021;28;925;-44
2022/05/17 09:23:32;;;;;;;;;;;28.00;40.40;;;;;;5096190;28;1979;-43
2022/05/17 09:26:06;;;;;;;;;;;28.00;40.40;;;;;;5095256;28;913;-43
2022/05/17 09:28:48;;;;;;;;;;;28.00;40.40;;;;;;5094499;28;1002;-43
2022/05/17 09:31:17;;;;;;;;;;;28.00;40.50;;;;;;5093411;28;1408;-43
2022/05/17 09:33:45;;;;;;;;;;;28.00;40.50;;;;;;5096547;28;996;-43
2022/05/17 09:36:17;;;;;;;;;;;28.10;40.50;;;;;;5095099;28;1008;-44
2022/05/17 09:38:44;;;;;;;;;;;28.10;40.40;;;;;;5095449;28;1843;-44
2022/05/17 09:41:13;;;;;;;;;;;28.10;40.40;;;;;;5095661;28;997;-44
2022/05/17 09:43:45;;;;;;;;;;;28.10;40.50;;;;;;5095312;28;1906;-43
2022/05/17 09:46:13;;;;;;;;;;;28.10;40.40;;;;;;5095335;28;1020;-43
2022/05/17 09:54:09;;;;;;;;;;;28.10;40.30;;;;;;5094627;28;626;-44
2022/05/17 09:56:36;;;;;;;;;;;28.10;40.30;;;;;;5095977;28;1004;-44
2022/05/17 09:59:20;;;;;;;;;;;28.10;40.20;;;;;;5095293;28;1193;-44
2022/05/17 10:01:47;;;;;;;;;;;28.20;40.20;;;;;;5096093;28;945;-44
2022/05/17 10:04:18;;;;;;;;;;;28.10;40.20;;;;;;5095746;28;1909;-44
2022/05/17 10:06:47;;;;;;;;;;;28.20;40.30;;;;;;5095254;28;989;-44
2022/05/17 10:09:26;;;;;;;;;;;28.10;40.20;;;;;;5096609;28;1015;-44
2022/05/17 10:11:57;;;;;;;;;;;28.10;40.10;;;;;;5096018;28;945;-44
2022/05/17 10:14:30;;;;;;;;;;;28.10;40.20;;;;;;5095049;28;912;-44
2022/05/17 10:17:00;;;;;;;;;;;28.10;40.30;;;;;;5095061;28;972;-44
2022/05/17 10:19:34;;;;;;;;;;;28.10;40.30;;;;;;5094816;28;925;-43
2022/05/17 10:22:09;;;;;;;;;;;28.10;40.40;;;;;;5094094;28;940;-44
2022/05/17 10:24:42;;;;;;;;;;;28.10;40.40;;;;;;5094037;28;1906;-43
2022/05/17 10:27:12;;;;;;;;;;;28.10;40.40;;;;;;5094188;28;1127;-43
2022/05/17 10:29:44;;;;;;;;;;;28.10;40.50;;;;;;5093633;28;959;-44
2022/05/17 10:32:13;;;;;;;;;;;28.10;40.50;;;;;;5093542;28;994;-44
2022/05/17 10:34:45;;;;;;;;;;;28.10;40.40;;;;;;5093419;28;1004;-43
2022/05/17 10:37:17;;;;;;;;;;;28.10;40.50;;;;;;5093361;28;1089;-44
2022/05/17 10:39:47;;;;;;;;;;;28.10;40.50;;;;;;5093692;28;1028;-44
2022/05/17 10:42:14;;;;;;;;;;;28.10;40.40;;;;;;5094608;28;969;-44
2022/05/17 10:44:42;;;;;;;;;;;28.20;40.50;;;;;;5098127;28;1991;-43
2022/05/17 10:47:13;;;;;;;;;;;28.20;40.50;;;;;;5095342;28;1027;-44
2022/05/17 10:49:48;;;;;;;;;;;28.10;40.40;;;;;;5094225;28;1445;-43
2022/05/17 10:52:22;;;;;;;;;;;28.20;40.50;;;;;;5092890;28;1029;-43
2022/05/17 10:54:55;;;;;;;;;;;28.20;40.50;;;;;;5091599;28;880;-40
2022/05/17 10:57:27;;;;;;;;;;;28.20;40.50;;;;;;5092192;28;1071;-43
2022/05/17 10:59:59;;;;;;;;;;;28.20;40.50;;;;;;5092024;28;1781;-41
2022/05/17 11:02:34;;;;;;;;;;;28.20;40.50;;;;;;5092829;28;864;-40
2022/05/17 11:05:15;;;;;;;;;;;28.20;40.50;;;;;;5091824;28;1906;-43
2022/05/17 11:07:52;;;;;;;;;;;28.20;40.50;;;;;;5091537;28;864;-42
2022/05/17 11:10:24;;;;;;;;;;;28.20;40.50;;;;;;5091100;28;1045;-43
2022/05/17 11:12:54;;;;;;;;;;;28.20;40.40;;;;;;5091656;28;1040;-41
2022/05/17 11:15:23;;;;;;;;;;;28.20;40.40;;;;;;5092051;28;999;-42
2022/05/17 11:17:52;;;;;;;;;;;28.30;41.70;;;;;;5091807;28;929;-44
2022/05/17 11:20:22;;;;;;;;;;;28.20;40.40;;;;;;5092429;28;1027;-43
2022/05/17 11:22:53;;;;;;;;;;;28.20;40.40;;;;;;5091903;28;1023;-44
2022/05/17 11:25:30;;;;;;;;;;;28.30;40.50;;;;;;5091598;28;1909;-43
2022/05/17 11:28:04;;;;;;;;;;;28.20;40.40;;;;;;5090667;28;1021;-44
2022/05/17 11:30:34;;;;;;;;;;;28.30;40.40;;;;;;5092444;28;968;-43
2022/05/17 11:33:09;;;;;;;;;;;28.30;40.30;;;;;;5090806;28;961;-42
2022/05/17 11:35:37;;;;;;;;;;;28.30;40.40;;;;;;5092370;28;969;-44
2022/05/17 11:38:07;;;;;;;;;;;28.30;40.30;;;;;;5091616;28;913;-44
2022/05/17 11:40:56;;;;;;;;;;;28.30;41.40;;;;;;5091525;28;1007;-43
2022/05/17 11:43:49;;;;;;;;;;;28.30;40.40;;;;;;5087204;28;1540;-43
2022/05/17 11:46:35;;;;;;;;;;;28.30;40.30;;;;;;5040286;28;1368;-42
2022/05/17 11:49:03;;;;;;;;;;;28.30;40.30;;;;;;5091478;28;667;-43
2022/05/17 11:51:31;;;;;;;;;;;28.30;40.40;;;;;;5091005;28;1020;-43
2022/05/17 11:54:00;;;;;;;;;;;28.30;40.30;;;;;;5092125;28;964;-42
2022/05/17 11:56:36;;;;;;;;;;;28.30;40.30;;;;;;5105945;28;1321;-43
2022/05/17 11:59:18;;;;;;;;;;;28.40;40.30;;;;;;5114345;28;1043;-43
2022/05/17 12:01:46;;;;;;;;;;;28.30;40.30;;;;;;5114200;28;1414;-44
2022/05/17 12:04:28;;;;;;;;;;;28.30;40.30;;;;;;5113342;28;1989;-43
2022/05/17 12:07:18;;;;;;;;;;;28.30;40.40;;;;;;5109293;28;1083;-43
2022/05/17 12:09:50;;;;;;;;;;;28.30;40.40;;;;;;5112207;28;952;-44
2022/05/17 12:12:32;;;;;;;;;;;28.40;40.50;;;;;;5112133;28;928;-48
2022/05/17 12:15:11;;;;;;;;;;;28.30;40.40;;;;;;5112497;28;1012;-43
2022/05/17 12:17:42;;;;;;;;;;;28.30;40.50;;;;;;5112430;28;1006;-45
2022/05/17 12:20:14;;;;;;;;;;;28.30;40.50;;;;;;5113036;28;1023;-43
2022/05/17 12:22:44;;;;;;;;;;;28.40;40.50;;;;;;5110784;28;1023;-44
2022/05/17 12:25:15;;;;;;;;;;;28.30;40.40;;;;;;5113123;28;1898;-44
2022/05/17 12:27:43;;;;;;;;;;;28.40;40.40;;;;;;5115038;28;1003;-44
2022/05/17 12:33:01;;;;;;;;;;;28.40;40.30;;;;;;5114378;28;604;-45
2022/05/17 12:35:29;;;;;;;;;;;28.40;40.40;;;;;;5114695;28;976;-43
2022/05/17 12:37:56;;;;;;;;;;;28.40;40.30;;;;;;5114632;28;941;-44
2022/05/17 12:43:12;;;;;;;;;;;28.50;40.20;;;;;;5113688;28;636;-45
2022/05/17 12:45:41;;;;;;;;;;;28.50;40.20;;;;;;5117249;28;1918;-44
2022/05/17 12:48:16;;;;;;;;;;;28.40;40.10;;;;;;5116807;28;1872;-43
2022/05/17 12:50:44;;;;;;;;;;;28.50;40.20;;;;;;5116749;28;988;-43
2022/05/17 12:53:13;;;;;;;;;;;28.50;40.10;;;;;;5114807;28;880;-43
2022/05/17 12:55:55;;;;;;;;;;;28.50;40.20;;;;;;5118263;28;944;-44
2022/05/17 12:58:22;;;;;;;;;;;28.50;40.10;;;;;;5117617;28;1007;-44
2022/05/17 13:00:56;;;;;;;;;;;28.60;40.00;;;;;;5116910;28;1021;-44
2022/05/17 13:03:25;;;;;;;;;;;28.60;40.10;;;;;;5115811;28;945;-43
2022/05/17 13:05:53;;;;;;;;;;;28.60;40.10;;;;;;5116748;28;1902;-44
2022/05/17 13:08:21;;;;;;;;;;;28.60;40.10;;;;;;5116157;28;949;-44
2022/05/17 13:10:59;;;;;;;;;;;28.60;40.00;;;;;;5118042;28;998;-43
2022/05/17 13:13:26;;;;;;;;;;;28.70;40.00;;;;;;5116698;28;961;-43
2022/05/17 13:15:54;;;;;;;;;;;28.70;40.00;;;;;;5116644;28;984;-43
2022/05/17 13:18:22;;;;;;;;;;;28.60;40.00;;;;;;5115664;28;1021;-44
2022/05/17 13:20:50;;;;;;;;;;;28.70;40.10;;;;;;5116032;28;1315;-43
2022/05/17 13:23:19;;;;;;;;;;;28.60;40.10;;;;;;5115223;28;945;-43
2022/05/17 13:25:47;;;;;;;;;;;28.70;40.10;;;;;;5115285;28;1901;-44
2022/05/17 13:28:23;;;;;;;;;;;28.70;40.00;;;;;;5115199;28;923;-44
2022/05/17 13:30:50;;;;;;;;;;;28.70;40.00;;;;;;5116328;28;1082;-44
2022/05/17 13:33:27;;;;;;;;;;;28.70;40.00;;;;;;5115518;28;944;-44
2022/05/17 13:36:03;;;;;;;;;;;28.70;40.10;;;;;;5116358;28;933;-44
2022/05/17 13:38:31;;;;;;;;;;;28.70;40.00;;;;;;5117484;28;933;-44
2022/05/17 13:40:58;;;;;;;;;;;28.70;40.00;;;;;;5117545;28;956;-44
2022/05/17 13:43:31;;;;;;;;;;;28.70;40.00;;;;;;5118060;28;988;-44
2022/05/17 13:46:00;;;;;;;;;;;28.70;40.00;;;;;;5116209;28;1898;-44
2022/05/17 13:48:27;;;;;;;;;;;28.70;39.90;;;;;;5117756;28;976;-44
2022/05/17 13:50:57;;;;;;;;;;;28.70;39.90;;;;;;5113724;28;1003;-44
2022/05/17 13:53:25;;;;;;;;;;;28.80;40.00;;;;;;5116632;28;991;-44
2022/05/17 13:55:53;;;;;;;;;;;28.80;39.90;;;;;;5116757;28;883;-43
2022/05/17 13:58:22;;;;;;;;;;;28.80;39.90;;;;;;5117353;28;1126;-44
2022/05/17 14:00:58;;;;;;;;;;;28.80;39.80;;;;;;5118403;28;1000;-44
2022/05/17 14:03:25;;;;;;;;;;;28.80;39.90;;;;;;5117424;28;960;-44
2022/05/17 14:05:57;;;;;;;;;;;28.90;39.90;;;;;;5116478;28;1978;-43
2022/05/17 14:14:00;;;;;;;;;;;29.00;39.80;;;;;;5115420;28;713;-44
2022/05/17 14:16:29;;;;;;;;;;;29.00;39.70;;;;;;5114935;28;993;-44
2022/05/17 14:18:56;;;;;;;;;;;29.00;39.70;;;;;;5115153;28;961;-44
2022/05/17 14:21:23;;;;;;;;;;;29.00;39.70;;;;;;5114273;28;1090;-44
2022/05/17 14:23:50;;;;;;;;;;;29.00;39.70;;;;;;5114102;28;941;-44
2022/05/17 14:26:18;;;;;;;;;;;29.00;39.70;;;;;;5114276;28;1902;-44
2022/05/17 14:28:45;;;;;;;;;;;29.00;39.70;;;;;;5115904;28;956;-44
2022/05/17 14:31:13;;;;;;;;;;;29.00;39.70;;;;;;5115057;28;1267;-43
2022/05/17 14:33:42;;;;;;;;;;;29.10;39.80;;;;;;5114453;28;998;-44
2022/05/17 14:36:13;;;;;;;;;;;29.10;39.70;;;;;;5114779;28;1161;-44
2022/05/17 14:38:40;;;;;;;;;;;29.10;39.70;;;;;;5115208;28;960;-44
2022/05/17 14:41:07;;;;;;;;;;;29.10;39.70;;;;;;5115765;28;949;-44
2022/05/17 14:43:33;;;;;;;;;;;29.10;39.70;;;;;;5115393;28;949;-44
2022/05/17 14:46:00;;;;;;;;;;;29.10;39.60;;;;;;5114554;28;1974;-42
2022/05/17 14:48:28;;;;;;;;;;;29.20;39.50;;;;;;5114272;28;1007;-41
2022/05/17 14:50:56;;;;;;;;;;;29.20;39.60;;;;;;5114360;28;1167;-43
2022/05/17 14:53:23;;;;;;;;;;;29.20;39.60;;;;;;5114637;28;1074;-43
2022/05/17 14:55:50;;;;;;;;;;;29.30;39.60;;;;;;5113349;28;1008;-44
2022/05/17 14:58:17;;;;;;;;;;;29.30;39.50;;;;;;5114097;28;1086;-43
2022/05/17 15:00:44;;;;;;;;;;;29.30;39.60;;;;;;5112675;28;992;-42
2022/05/17 15:03:16;;;;;;;;;;;29.30;39.40;;;;;;5113486;28;1016;-44
2022/05/17 15:05:43;;;;;;;;;;;29.40;39.50;;;;;;5111632;28;1909;-44
2022/05/17 15:08:11;;;;;;;;;;;29.40;39.50;;;;;;5113420;28;1043;-44
2022/05/17 15:10:38;;;;;;;;;;;29.40;39.30;;;;;;5113736;28;938;-44